sensor_id;sensor_type;location;lat;lon;timestamp;P1;durP1;ratioP1;P2;durP2;ratioP2
62479;SDS011;48526;48.846;2.322;2022-08-19T05:01:24;4.00;;;3.25;;
62479;SDS011;48526;48.846;2.322;2022-08-19T05:03:53;5.50;;;5.00;;
62479;SDS011;48526;48.846;2.322;2022-08-19T05:06:19;5.25;;;5.25;;
62479;SDS011;48526;48.846;2.322;2022-08-19T05:08:46;4.75;;;4.50;;
62479;SDS011;48526;48.846;2.322;2022-08-19T05:11:25;4.25;;;4.25;;
62479;SDS011;48526;48.846;2.322;2022-08-19T05:13:53;3.50;;;3.50;;
62479;SDS011;48526;48.846;2.322;2022-08-19T05:16:22;4.25;;;4.25;;
62479;SDS011;48526;48.846;2.322;2022-08-19T05:18:52;4.00;;;4.00;;
62479;SDS011;48526;48.846;2.322;2022-08-19T05:21:38;4.00;;;4.00;;
62479;SDS011;48526;48.846;2.322;2022-08-19T05:24:26;4.75;;;4.75;;
62479;SDS011;48526;48.846;2.322;2022-08-19T05:27:01;6.25;;;5.25;;
62479;SDS011;48526;48.846;2.322;2022-08-19T05:29:30;5.00;;;5.00;;
62479;SDS011;48526;48.846;2.322;2022-08-19T05:32:03;8.00;;;6.75;;
62479;SDS011;48526;48.846;2.322;2022-08-19T05:34:30;6.50;;;6.50;;
62479;SDS011;48526;48.846;2.322;2022-08-19T05:36:57;5.75;;;4.50;;
62479;SDS011;48526;48.846;2.322;2022-08-19T05:39:37;4.00;;;4.00;;
62479;SDS011;48526;48.846;2.322;2022-08-19T05:42:07;7.00;;;6.00;;
62479;SDS011;48526;48.846;2.322;2022-08-19T05:44:35;4.25;;;3.75;;
62479;SDS011;48526;48.846;2.322;2022-08-19T05:47:08;3.75;;;3.75;;
62479;SDS011;48526;48.846;2.322;2022-08-19T05:49:36;5.75;;;5.75;;
62479;SDS011;48526;48.846;2.322;2022-08-19T05:52:12;4.00;;;3.50;;
62479;SDS011;48526;48.846;2.322;2022-08-19T05:54:40;5.25;;;5.25;;
62479;SDS011;48526;48.846;2.322;2022-08-19T05:57:15;4.25;;;4.25;;
62479;SDS011;48526;48.846;2.322;2022-08-19T05:59:40;8.50;;;7.25;;
62479;SDS011;48526;48.846;2.322;2022-08-19T06:02:10;5.00;;;5.00;;
62479;SDS011;48526;48.846;2.322;2022-08-19T06:04:39;4.75;;;4.75;;
62479;SDS011;48526;48.846;2.322;2022-08-19T06:07:12;6.00;;;4.00;;
62479;SDS011;48526;48.846;2.322;2022-08-19T06:09:40;3.75;;;3.75;;
62479;SDS011;48526;48.846;2.322;2022-08-19T06:12:20;4.75;;;3.50;;
62479;SDS011;48526;48.846;2.322;2022-08-19T06:14:55;3.50;;;3.50;;
62479;SDS011;48526;48.846;2.322;2022-08-19T06:17:23;4.00;;;3.50;;
62479;SDS011;48526;48.846;2.322;2022-08-19T06:19:53;3.75;;;3.75;;
62479;SDS011;48526;48.846;2.322;2022-08-19T06:22:21;3.75;;;3.75;;
62479;SDS011;48526;48.846;2.322;2022-08-19T06:24:46;7.25;;;4.00;;
62479;SDS011;48526;48.846;2.322;2022-08-19T06:27:24;7.75;;;3.50;;
62479;SDS011;48526;48.846;2.322;2022-08-19T06:30:03;2.75;;;2.75;;
62479;SDS011;48526;48.846;2.322;2022-08-19T06:32:44;6.25;;;3.75;;
62479;SDS011;48526;48.846;2.322;2022-08-19T06:35:09;4.25;;;3.75;;
62479;SDS011;48526;48.846;2.322;2022-08-19T06:37:39;5.75;;;3.75;;
62479;SDS011;48526;48.846;2.322;2022-08-19T06:40:08;7.25;;;5.75;;
62479;SDS011;48526;48.846;2.322;2022-08-19T06:42:38;4.00;;;3.00;;
62479;SDS011;48526;48.846;2.322;2022-08-19T06:45:08;4.00;;;4.00;;
62479;SDS011;48526;48.846;2.322;2022-08-19T06:47:38;3.75;;;3.00;;
62479;SDS011;48526;48.846;2.322;2022-08-19T06:50:13;4.25;;;3.25;;
62479;SDS011;48526;48.846;2.322;2022-08-19T06:52:52;3.25;;;3.00;;
62479;SDS011;48526;48.846;2.322;2022-08-19T06:55:21;4.75;;;3.00;;
62479;SDS011;48526;48.846;2.322;2022-08-19T06:58:04;5.00;;;5.00;;
62479;SDS011;48526;48.846;2.322;2022-08-19T07:00:37;3.75;;;3.75;;
62479;SDS011;48526;48.846;2.322;2022-08-19T07:03:13;3.50;;;3.50;;
62479;SDS011;48526;48.846;2.322;2022-08-19T07:05:46;4.25;;;3.00;;
62479;SDS011;48526;48.846;2.322;2022-08-19T07:08:16;3.75;;;3.25;;
62479;SDS011;48526;48.846;2.322;2022-08-19T07:11:00;2.75;;;2.50;;
62479;SDS011;48526;48.846;2.322;2022-08-19T07:13:33;4.00;;;4.00;;
62479;SDS011;48526;48.846;2.322;2022-08-19T07:16:35;1.50;;;1.50;;
62479;SDS011;48526;48.846;2.322;2022-08-19T07:19:18;4.50;;;3.00;;
62479;SDS011;48526;48.846;2.322;2022-08-19T07:21:52;2.75;;;2.75;;
62479;SDS011;48526;48.846;2.322;2022-08-19T07:24:33;6.75;;;3.75;;
62479;SDS011;48526;48.846;2.322;2022-08-19T07:27:06;4.00;;;3.00;;
62479;SDS011;48526;48.846;2.322;2022-08-19T07:29:33;2.00;;;2.00;;
62479;SDS011;48526;48.846;2.322;2022-08-19T07:32:00;3.00;;;2.00;;
62479;SDS011;48526;48.846;2.322;2022-08-19T07:34:36;2.00;;;2.00;;
62479;SDS011;48526;48.846;2.322;2022-08-19T07:37:03;3.25;;;3.00;;
62479;SDS011;48526;48.846;2.322;2022-08-19T07:39:32;2.25;;;2.25;;
62479;SDS011;48526;48.846;2.322;2022-08-19T07:42:03;3.50;;;3.50;;
62479;SDS011;48526;48.846;2.322;2022-08-19T07:44:53;3.00;;;2.75;;
62479;SDS011;48526;48.846;2.322;2022-08-19T07:47:35;2.25;;;2.25;;
62479;SDS011;48526;48.846;2.322;2022-08-19T07:50:23;1.75;;;1.00;;
62479;SDS011;48526;48.846;2.322;2022-08-19T07:52:48;3.50;;;2.75;;
62479;SDS011;48526;48.846;2.322;2022-08-19T07:55:20;1.75;;;1.75;;
62479;SDS011;48526;48.846;2.322;2022-08-19T07:57:56;3.50;;;2.50;;
62479;SDS011;48526;48.846;2.322;2022-08-19T08:00:22;2.50;;;2.00;;
62479;SDS011;48526;48.846;2.322;2022-08-19T08:05:24;1.75;;;1.75;;
62479;SDS011;48526;48.846;2.322;2022-08-19T08:08:11;2.00;;;2.00;;
62479;SDS011;48526;48.846;2.322;2022-08-19T08:11:05;2.75;;;2.75;;
62479;SDS011;48526;48.846;2.322;2022-08-19T08:13:41;3.25;;;3.25;;
62479;SDS011;48526;48.846;2.322;2022-08-19T08:16:26;1.75;;;1.75;;
62479;SDS011;48526;48.846;2.322;2022-08-19T08:19:04;1.00;;;1.00;;
62479;SDS011;48526;48.846;2.322;2022-08-19T08:21:33;1.75;;;1.75;;
62479;SDS011;48526;48.846;2.322;2022-08-19T08:24:10;5.00;;;2.00;;
62479;SDS011;48526;48.846;2.322;2022-08-19T08:26:44;3.00;;;3.00;;
62479;SDS011;48526;48.846;2.322;2022-08-19T08:29:20;2.00;;;2.00;;
62479;SDS011;48526;48.846;2.322;2022-08-19T08:31:53;4.00;;;4.00;;
62479;SDS011;48526;48.846;2.322;2022-08-19T08:34:28;2.75;;;2.75;;
62479;SDS011;48526;48.846;2.322;2022-08-19T08:36:56;3.00;;;2.00;;
62479;SDS011;48526;48.846;2.322;2022-08-19T08:39:24;2.00;;;2.00;;
62479;SDS011;48526;48.846;2.322;2022-08-19T08:45:05;2.00;;;2.00;;
62479;SDS011;48526;48.846;2.322;2022-08-19T08:47:39;4.25;;;3.00;;
62479;SDS011;48526;48.846;2.322;2022-08-19T08:53:21;3.00;;;2.00;;
62479;SDS011;48526;48.846;2.322;2022-08-19T08:56:10;2.25;;;2.00;;
62479;SDS011;48526;48.846;2.322;2022-08-19T09:01:10;3.00;;;3.00;;
62479;SDS011;48526;48.846;2.322;2022-08-19T09:03:49;3.00;;;2.00;;
62479;SDS011;48526;48.846;2.322;2022-08-19T09:06:26;3.25;;;3.00;;
62479;SDS011;48526;48.846;2.322;2022-08-19T09:14:58;6.00;;;3.00;;
62479;SDS011;48526;48.846;2.322;2022-08-19T09:17:40;3.00;;;3.00;;
62479;SDS011;48526;48.846;2.322;2022-08-19T09:20:22;5.00;;;4.00;;
62479;SDS011;48526;48.846;2.322;2022-08-19T09:23:05;4.00;;;4.00;;
62479;SDS011;48526;48.846;2.322;2022-08-19T09:25:59;1.50;;;1.50;;
62479;SDS011;48526;48.846;2.322;2022-08-19T09:28:30;4.25;;;2.50;;
62479;SDS011;48526;48.846;2.322;2022-08-19T09:31:32;2.00;;;2.00;;
62479;SDS011;48526;48.846;2.322;2022-08-19T09:34:03;3.25;;;3.00;;
62479;SDS011;48526;48.846;2.322;2022-08-19T09:36:36;5.00;;;3.00;;
62479;SDS011;48526;48.846;2.322;2022-08-19T09:42:15;5.75;;;2.75;;
62479;SDS011;48526;48.846;2.322;2022-08-19T09:44:45;4.75;;;4.00;;
62479;SDS011;48526;48.846;2.322;2022-08-19T09:47:33;2.75;;;2.75;;
62479;SDS011;48526;48.846;2.322;2022-08-19T09:50:10;2.00;;;2.00;;
62479;SDS011;48526;48.846;2.322;2022-08-19T09:52:54;3.00;;;3.00;;
62479;SDS011;48526;48.846;2.322;2022-08-19T09:55:35;3.00;;;3.00;;
62479;SDS011;48526;48.846;2.322;2022-08-19T10:02:02;3.00;;;3.00;;
62479;SDS011;48526;48.846;2.322;2022-08-19T10:08:01;3.00;;;3.00;;
62479;SDS011;48526;48.846;2.322;2022-08-19T10:11:03;2.75;;;2.75;;
62479;SDS011;48526;48.846;2.322;2022-08-19T10:13:37;2.75;;;2.75;;
62479;SDS011;48526;48.846;2.322;2022-08-19T10:16:11;3.50;;;3.00;;
62479;SDS011;48526;48.846;2.322;2022-08-19T10:18:50;4.00;;;3.50;;
62479;SDS011;48526;48.846;2.322;2022-08-19T10:21:36;2.50;;;2.00;;
62479;SDS011;48526;48.846;2.322;2022-08-19T10:24:05;3.00;;;3.00;;
62479;SDS011;48526;48.846;2.322;2022-08-19T10:29:53;9.00;;;9.00;;
62479;SDS011;48526;48.846;2.322;2022-08-19T10:32:26;6.50;;;4.00;;
62479;SDS011;48526;48.846;2.322;2022-08-19T10:35:09;2.00;;;2.00;;
62479;SDS011;48526;48.846;2.322;2022-08-19T10:37:44;3.00;;;3.00;;
62479;SDS011;48526;48.846;2.322;2022-08-19T10:40:19;4.75;;;3.00;;
62479;SDS011;48526;48.846;2.322;2022-08-19T10:43:28;3.00;;;3.00;;
62479;SDS011;48526;48.846;2.322;2022-08-19T10:46:11;3.25;;;3.00;;
62479;SDS011;48526;48.846;2.322;2022-08-19T10:48:50;1.50;;;1.25;;
62479;SDS011;48526;48.846;2.322;2022-08-19T10:51:35;2.50;;;2.50;;
62479;SDS011;48526;48.846;2.322;2022-08-19T10:54:43;4.00;;;4.00;;
62479;SDS011;48526;48.846;2.322;2022-08-19T10:57:30;2.00;;;2.00;;
62479;SDS011;48526;48.846;2.322;2022-08-19T11:00:30;2.00;;;2.00;;
62479;SDS011;48526;48.846;2.322;2022-08-19T11:03:15;3.25;;;2.00;;
62479;SDS011;48526;48.846;2.322;2022-08-19T11:05:43;3.75;;;3.50;;
62479;SDS011;48526;48.846;2.322;2022-08-19T11:08:32;2.00;;;2.00;;
62479;SDS011;48526;48.846;2.322;2022-08-19T11:11:12;3.00;;;3.00;;
62479;SDS011;48526;48.846;2.322;2022-08-19T11:16:22;4.00;;;3.00;;
62479;SDS011;48526;48.846;2.322;2022-08-19T11:19:10;3.00;;;3.00;;
62479;SDS011;48526;48.846;2.322;2022-08-19T11:22:20;2.50;;;2.50;;
62479;SDS011;48526;48.846;2.322;2022-08-19T11:24:48;4.50;;;3.00;;
62479;SDS011;48526;48.846;2.322;2022-08-19T11:27:20;2.25;;;2.25;;
62479;SDS011;48526;48.846;2.322;2022-08-19T11:30:09;3.25;;;3.00;;
62479;SDS011;48526;48.846;2.322;2022-08-19T11:32:45;3.00;;;3.00;;
62479;SDS011;48526;48.846;2.322;2022-08-19T11:35:23;4.75;;;3.25;;
62479;SDS011;48526;48.846;2.322;2022-08-19T11:37:57;4.00;;;3.50;;
62479;SDS011;48526;48.846;2.322;2022-08-19T11:41:05;2.00;;;2.00;;
62479;SDS011;48526;48.846;2.322;2022-08-19T11:43:34;3.00;;;2.00;;
62479;SDS011;48526;48.846;2.322;2022-08-19T11:46:24;2.00;;;2.00;;
62479;SDS011;48526;48.846;2.322;2022-08-19T11:48:57;2.00;;;2.00;;
62479;SDS011;48526;48.846;2.322;2022-08-19T11:51:26;4.00;;;4.00;;
62479;SDS011;48526;48.846;2.322;2022-08-19T11:54:14;2.50;;;2.50;;
62479;SDS011;48526;48.846;2.322;2022-08-19T11:56:58;3.00;;;2.00;;
62479;SDS011;48526;48.846;2.322;2022-08-19T11:59:55;2.25;;;2.25;;
62479;SDS011;48526;48.846;2.322;2022-08-19T12:05:37;2.00;;;2.00;;
62479;SDS011;48526;48.846;2.322;2022-08-19T12:08:19;3.00;;;3.00;;
62479;SDS011;48526;48.846;2.322;2022-08-19T12:10:52;2.00;;;2.00;;
62479;SDS011;48526;48.846;2.322;2022-08-19T12:13:30;1.75;;;1.75;;
62479;SDS011;48526;48.846;2.322;2022-08-19T12:16:20;2.00;;;2.00;;
62479;SDS011;48526;48.846;2.322;2022-08-19T12:18:56;2.00;;;2.00;;
62479;SDS011;48526;48.846;2.322;2022-08-19T12:21:41;2.00;;;2.00;;
62479;SDS011;48526;48.846;2.322;2022-08-19T12:24:06;3.00;;;2.00;;
62479;SDS011;48526;48.846;2.322;2022-08-19T12:26:38;2.00;;;2.00;;
62479;SDS011;48526;48.846;2.322;2022-08-19T12:29:23;2.00;;;2.00;;
62479;SDS011;48526;48.846;2.322;2022-08-19T12:32:26;2.00;;;2.00;;
62479;SDS011;48526;48.846;2.322;2022-08-19T12:35:04;3.00;;;3.00;;
62479;SDS011;48526;48.846;2.322;2022-08-19T12:37:35;2.75;;;2.75;;
62479;SDS011;48526;48.846;2.322;2022-08-19T12:40:09;3.50;;;3.00;;
62479;SDS011;48526;48.846;2.322;2022-08-19T12:42:41;2.75;;;2.75;;
62479;SDS011;48526;48.846;2.322;2022-08-19T12:45:39;3.25;;;3.25;;
62479;SDS011;48526;48.846;2.322;2022-08-19T12:48:08;3.50;;;3.00;;
62479;SDS011;48526;48.846;2.322;2022-08-19T12:50:43;1.75;;;1.75;;
62479;SDS011;48526;48.846;2.322;2022-08-19T12:53:22;3.50;;;3.50;;
62479;SDS011;48526;48.846;2.322;2022-08-19T12:56:08;3.00;;;3.00;;
62479;SDS011;48526;48.846;2.322;2022-08-19T12:58:41;2.00;;;2.00;;
62479;SDS011;48526;48.846;2.322;2022-08-19T13:01:29;3.25;;;1.25;;
62479;SDS011;48526;48.846;2.322;2022-08-19T13:04:00;1.75;;;1.75;;
62479;SDS011;48526;48.846;2.322;2022-08-19T13:06:41;5.50;;;4.50;;
62479;SDS011;48526;48.846;2.322;2022-08-19T13:09:40;3.00;;;3.00;;
62479;SDS011;48526;48.846;2.322;2022-08-19T13:12:20;3.00;;;3.00;;
62479;SDS011;48526;48.846;2.322;2022-08-19T13:14:51;3.75;;;2.00;;
62479;SDS011;48526;48.846;2.322;2022-08-19T13:20:42;1.75;;;1.75;;
62479;SDS011;48526;48.846;2.322;2022-08-19T13:26:06;1.25;;;1.25;;
62479;SDS011;48526;48.846;2.322;2022-08-19T13:28:58;0.75;;;0.75;;
62479;SDS011;48526;48.846;2.322;2022-08-19T13:31:44;0.25;;;0.25;;
62479;SDS011;48526;48.846;2.322;2022-08-19T13:35:05;1.00;;;1.00;;
62479;SDS011;48526;48.846;2.322;2022-08-19T13:37:42;3.50;;;3.00;;
62479;SDS011;48526;48.846;2.322;2022-08-19T13:40:20;3.00;;;2.50;;
62479;SDS011;48526;48.846;2.322;2022-08-19T13:43:01;1.00;;;0.25;;
62479;SDS011;48526;48.846;2.322;2022-08-19T13:45:32;3.50;;;1.50;;
62479;SDS011;48526;48.846;2.322;2022-08-19T13:51:26;4.25;;;2.50;;
62479;SDS011;48526;48.846;2.322;2022-08-19T13:54:14;2.00;;;1.50;;
62479;SDS011;48526;48.846;2.322;2022-08-19T13:56:45;2.00;;;1.00;;
62479;SDS011;48526;48.846;2.322;2022-08-19T13:59:53;4.00;;;2.50;;
62479;SDS011;48526;48.846;2.322;2022-08-19T14:02:37;2.00;;;2.00;;
62479;SDS011;48526;48.846;2.322;2022-08-19T14:05:16;2.75;;;2.25;;
62479;SDS011;48526;48.846;2.322;2022-08-19T14:08:03;2.00;;;2.00;;
62479;SDS011;48526;48.846;2.322;2022-08-19T14:10:35;2.25;;;0.50;;
62479;SDS011;48526;48.846;2.322;2022-08-19T14:13:08;1.75;;;1.25;;
62479;SDS011;48526;48.846;2.322;2022-08-19T14:15:45;2.50;;;1.25;;
62479;SDS011;48526;48.846;2.322;2022-08-19T14:18:23;1.00;;;1.00;;
62479;SDS011;48526;48.846;2.322;2022-08-19T14:21:19;2.50;;;2.50;;
62479;SDS011;48526;48.846;2.322;2022-08-19T14:26:48;1.00;;;1.00;;
62479;SDS011;48526;48.846;2.322;2022-08-19T14:32:49;1.00;;;1.00;;
62479;SDS011;48526;48.846;2.322;2022-08-19T14:35:44;1.50;;;1.00;;
62479;SDS011;48526;48.846;2.322;2022-08-19T14:38:43;0.50;;;0.50;;
62479;SDS011;48526;48.846;2.322;2022-08-19T14:41:19;2.50;;;2.00;;
62479;SDS011;48526;48.846;2.322;2022-08-19T14:44:16;0.50;;;0.50;;
62479;SDS011;48526;48.846;2.322;2022-08-19T14:46:53;2.00;;;1.00;;
62479;SDS011;48526;48.846;2.322;2022-08-19T14:49:41;1.25;;;1.25;;
62479;SDS011;48526;48.846;2.322;2022-08-19T14:55:09;4.25;;;3.25;;
62479;SDS011;48526;48.846;2.322;2022-08-19T14:57:45;1.00;;;1.00;;
62479;SDS011;48526;48.846;2.322;2022-08-19T15:00:11;1.00;;;0.50;;
62479;SDS011;48526;48.846;2.322;2022-08-19T15:03:09;1.25;;;0.50;;
62479;SDS011;48526;48.846;2.322;2022-08-19T15:05:53;1.00;;;1.00;;
62479;SDS011;48526;48.846;2.322;2022-08-19T15:08:26;1.00;;;1.00;;
62479;SDS011;48526;48.846;2.322;2022-08-19T15:10:55;3.00;;;1.00;;
62479;SDS011;48526;48.846;2.322;2022-08-19T15:16:41;2.50;;;2.25;;
62479;SDS011;48526;48.846;2.322;2022-08-19T15:22:14;2.25;;;1.25;;
62479;SDS011;48526;48.846;2.322;2022-08-19T15:24:59;3.25;;;2.25;;
62479;SDS011;48526;48.846;2.322;2022-08-19T15:27:30;1.50;;;0.50;;
62479;SDS011;48526;48.846;2.322;2022-08-19T15:30:06;0.25;;;0.25;;
62479;SDS011;48526;48.846;2.322;2022-08-19T15:32:54;1.50;;;1.50;;
62479;SDS011;48526;48.846;2.322;2022-08-19T15:35:38;1.25;;;1.25;;
62479;SDS011;48526;48.846;2.322;2022-08-19T15:38:06;2.50;;;2.00;;
62479;SDS011;48526;48.846;2.322;2022-08-19T15:47:12;1.75;;;1.75;;
62479;SDS011;48526;48.846;2.322;2022-08-19T15:49:45;2.00;;;2.00;;
62479;SDS011;48526;48.846;2.322;2022-08-19T15:52:19;2.00;;;2.00;;
62479;SDS011;48526;48.846;2.322;2022-08-19T15:54:56;3.75;;;2.75;;
62479;SDS011;48526;48.846;2.322;2022-08-19T15:57:37;1.50;;;1.50;;
62479;SDS011;48526;48.846;2.322;2022-08-19T16:00:21;1.50;;;1.50;;
62479;SDS011;48526;48.846;2.322;2022-08-19T16:03:12;0.75;;;0.75;;
62479;SDS011;48526;48.846;2.322;2022-08-19T16:05:58;1.25;;;1.00;;
62479;SDS011;48526;48.846;2.322;2022-08-19T16:08:53;1.00;;;1.00;;
62479;SDS011;48526;48.846;2.322;2022-08-19T16:11:24;2.00;;;2.00;;
62479;SDS011;48526;48.846;2.322;2022-08-19T16:14:13;2.50;;;2.00;;
62479;SDS011;48526;48.846;2.322;2022-08-19T16:16:54;0.75;;;0.25;;
62479;SDS011;48526;48.846;2.322;2022-08-19T16:19:24;1.00;;;1.00;;
62479;SDS011;48526;48.846;2.322;2022-08-19T16:22:09;1.75;;;1.75;;
62479;SDS011;48526;48.846;2.322;2022-08-19T16:25:00;1.25;;;1.25;;
62479;SDS011;48526;48.846;2.322;2022-08-19T16:30:27;2.00;;;2.00;;
62479;SDS011;48526;48.846;2.322;2022-08-19T16:33:10;1.00;;;1.00;;
62479;SDS011;48526;48.846;2.322;2022-08-19T16:38:58;1.75;;;1.75;;
62479;SDS011;48526;48.846;2.322;2022-08-19T16:41:29;1.75;;;1.75;;
62479;SDS011;48526;48.846;2.322;2022-08-19T16:44:11;1.50;;;1.00;;
62479;SDS011;48526;48.846;2.322;2022-08-19T16:46:57;2.75;;;2.75;;
62479;SDS011;48526;48.846;2.322;2022-08-19T16:49:28;4.00;;;4.00;;
62479;SDS011;48526;48.846;2.322;2022-08-19T16:52:17;2.50;;;2.50;;
62479;SDS011;48526;48.846;2.322;2022-08-19T16:54:52;2.00;;;2.00;;
62479;SDS011;48526;48.846;2.322;2022-08-19T16:57:32;2.25;;;2.25;;
62479;SDS011;48526;48.846;2.322;2022-08-19T17:00:01;3.00;;;2.00;;
62479;SDS011;48526;48.846;2.322;2022-08-19T17:02:35;5.25;;;5.25;;
62479;SDS011;48526;48.846;2.322;2022-08-19T17:05:07;4.75;;;3.75;;
62479;SDS011;48526;48.846;2.322;2022-08-19T17:07:38;2.00;;;2.00;;
62479;SDS011;48526;48.846;2.322;2022-08-19T17:10:17;2.25;;;2.00;;
62479;SDS011;48526;48.846;2.322;2022-08-19T17:13:02;3.00;;;3.00;;
62479;SDS011;48526;48.846;2.322;2022-08-19T17:15:30;1.50;;;1.50;;
62479;SDS011;48526;48.846;2.322;2022-08-19T17:18:04;2.75;;;2.50;;
62479;SDS011;48526;48.846;2.322;2022-08-19T17:20:43;3.00;;;3.00;;
62479;SDS011;48526;48.846;2.322;2022-08-19T17:23:23;3.00;;;2.00;;
62479;SDS011;48526;48.846;2.322;2022-08-19T17:25:59;3.00;;;3.00;;
62479;SDS011;48526;48.846;2.322;2022-08-19T17:28:33;2.50;;;2.50;;
62479;SDS011;48526;48.846;2.322;2022-08-19T17:31:16;2.25;;;2.25;;
62479;SDS011;48526;48.846;2.322;2022-08-19T17:33:47;2.50;;;2.50;;
62479;SDS011;48526;48.846;2.322;2022-08-19T17:36:19;8.25;;;5.50;;
62479;SDS011;48526;48.846;2.322;2022-08-19T17:38:57;5.00;;;3.00;;
62479;SDS011;48526;48.846;2.322;2022-08-19T17:41:26;4.00;;;4.00;;
62479;SDS011;48526;48.846;2.322;2022-08-19T17:44:07;2.50;;;2.00;;
62479;SDS011;48526;48.846;2.322;2022-08-19T17:46:43;2.00;;;1.25;;
62479;SDS011;48526;48.846;2.322;2022-08-19T17:49:11;1.50;;;1.50;;
62479;SDS011;48526;48.846;2.322;2022-08-19T17:51:53;4.50;;;1.00;;
62479;SDS011;48526;48.846;2.322;2022-08-19T17:54:24;4.50;;;3.00;;
62479;SDS011;48526;48.846;2.322;2022-08-19T17:59:53;3.50;;;3.00;;
62479;SDS011;48526;48.846;2.322;2022-08-19T18:02:20;7.00;;;3.75;;
62479;SDS011;48526;48.846;2.322;2022-08-19T18:05:06;5.00;;;3.50;;
62479;SDS011;48526;48.846;2.322;2022-08-19T18:07:58;2.00;;;2.00;;
62479;SDS011;48526;48.846;2.322;2022-08-19T18:10:46;4.00;;;2.50;;
62479;SDS011;48526;48.846;2.322;2022-08-19T18:13:13;2.00;;;1.75;;
62479;SDS011;48526;48.846;2.322;2022-08-19T18:15:46;1.75;;;1.75;;
62479;SDS011;48526;48.846;2.322;2022-08-19T18:18:26;2.25;;;2.00;;
62479;SDS011;48526;48.846;2.322;2022-08-19T18:20:54;5.50;;;4.00;;
62479;SDS011;48526;48.846;2.322;2022-08-19T18:23:33;2.75;;;1.75;;
62479;SDS011;48526;48.846;2.322;2022-08-19T18:26:03;1.50;;;1.50;;
62479;SDS011;48526;48.846;2.322;2022-08-19T18:28:44;2.75;;;2.00;;
62479;SDS011;48526;48.846;2.322;2022-08-19T18:31:20;3.00;;;3.00;;
62479;SDS011;48526;48.846;2.322;2022-08-19T18:33:54;3.75;;;3.00;;
62479;SDS011;48526;48.846;2.322;2022-08-19T18:36:25;2.00;;;2.00;;
62479;SDS011;48526;48.846;2.322;2022-08-19T18:39:11;2.00;;;2.00;;
62479;SDS011;48526;48.846;2.322;2022-08-19T18:42:00;3.00;;;3.00;;
62479;SDS011;48526;48.846;2.322;2022-08-19T18:44:49;3.00;;;3.00;;
62479;SDS011;48526;48.846;2.322;2022-08-19T18:47:43;2.75;;;2.75;;
62479;SDS011;48526;48.846;2.322;2022-08-19T18:50:30;2.00;;;2.00;;
62479;SDS011;48526;48.846;2.322;2022-08-19T18:53:12;2.00;;;2.00;;
62479;SDS011;48526;48.846;2.322;2022-08-19T18:55:52;3.00;;;3.00;;
62479;SDS011;48526;48.846;2.322;2022-08-19T18:58:23;2.00;;;1.00;;
62479;SDS011;48526;48.846;2.322;2022-08-19T19:00:58;3.00;;;2.00;;
62479;SDS011;48526;48.846;2.322;2022-08-19T19:03:26;2.00;;;1.00;;
62479;SDS011;48526;48.846;2.322;2022-08-19T19:06:05;2.00;;;2.00;;
62479;SDS011;48526;48.846;2.322;2022-08-19T19:08:31;2.00;;;2.00;;
62479;SDS011;48526;48.846;2.322;2022-08-19T19:14:00;1.00;;;1.00;;
62479;SDS011;48526;48.846;2.322;2022-08-19T19:16:49;3.25;;;2.00;;
62479;SDS011;48526;48.846;2.322;2022-08-19T19:19:25;1.00;;;1.00;;
62479;SDS011;48526;48.846;2.322;2022-08-19T19:21:51;1.25;;;1.25;;
62479;SDS011;48526;48.846;2.322;2022-08-19T19:24:22;1.75;;;1.00;;
62479;SDS011;48526;48.846;2.322;2022-08-19T19:27:01;4.00;;;3.00;;
62479;SDS011;48526;48.846;2.322;2022-08-19T19:29:36;3.00;;;1.00;;
62479;SDS011;48526;48.846;2.322;2022-08-19T19:32:05;2.00;;;1.00;;
62479;SDS011;48526;48.846;2.322;2022-08-19T19:34:50;3.00;;;3.00;;
62479;SDS011;48526;48.846;2.322;2022-08-19T19:37:18;1.00;;;1.00;;
62479;SDS011;48526;48.846;2.322;2022-08-19T19:39:49;1.75;;;1.75;;
62479;SDS011;48526;48.846;2.322;2022-08-19T19:42:18;2.25;;;2.25;;
62479;SDS011;48526;48.846;2.322;2022-08-19T19:45:00;2.50;;;1.50;;
62479;SDS011;48526;48.846;2.322;2022-08-19T19:47:26;2.00;;;2.00;;
62479;SDS011;48526;48.846;2.322;2022-08-19T19:50:05;1.50;;;1.50;;
62479;SDS011;48526;48.846;2.322;2022-08-19T19:52:31;1.00;;;1.00;;
62479;SDS011;48526;48.846;2.322;2022-08-19T19:55:16;2.00;;;2.00;;
62479;SDS011;48526;48.846;2.322;2022-08-19T19:58:00;2.00;;;1.00;;
62479;SDS011;48526;48.846;2.322;2022-08-19T20:00:31;1.00;;;1.00;;
62479;SDS011;48526;48.846;2.322;2022-08-19T20:02:59;1.00;;;1.00;;
62479;SDS011;48526;48.846;2.322;2022-08-19T20:05:29;1.50;;;1.50;;
62479;SDS011;48526;48.846;2.322;2022-08-19T20:08:02;2.00;;;1.75;;
62479;SDS011;48526;48.846;2.322;2022-08-19T20:10:46;1.25;;;1.25;;
62479;SDS011;48526;48.846;2.322;2022-08-19T20:13:14;2.25;;;2.25;;
62479;SDS011;48526;48.846;2.322;2022-08-19T20:15:45;1.00;;;1.00;;
62479;SDS011;48526;48.846;2.322;2022-08-19T20:18:13;1.00;;;1.00;;
62479;SDS011;48526;48.846;2.322;2022-08-19T20:20:42;1.75;;;0.50;;
62479;SDS011;48526;48.846;2.322;2022-08-19T20:23:14;1.00;;;1.00;;
62479;SDS011;48526;48.846;2.322;2022-08-19T20:25:46;3.00;;;3.00;;
62479;SDS011;48526;48.846;2.322;2022-08-19T20:28:13;3.50;;;3.00;;
62479;SDS011;48526;48.846;2.322;2022-08-19T20:31:00;5.50;;;3.00;;
62479;SDS011;48526;48.846;2.322;2022-08-19T20:33:26;4.00;;;3.00;;
62479;SDS011;48526;48.846;2.322;2022-08-19T20:36:01;2.00;;;2.00;;
62479;SDS011;48526;48.846;2.322;2022-08-19T20:38:30;2.00;;;2.00;;
62479;SDS011;48526;48.846;2.322;2022-08-19T20:40:59;1.00;;;1.00;;
62479;SDS011;48526;48.846;2.322;2022-08-19T20:43:51;2.00;;;2.00;;
62479;SDS011;48526;48.846;2.322;2022-08-19T20:46:23;1.00;;;1.00;;
62479;SDS011;48526;48.846;2.322;2022-08-19T20:48:53;1.00;;;1.00;;
62479;SDS011;48526;48.846;2.322;2022-08-19T20:51:28;1.75;;;0.75;;
62479;SDS011;48526;48.846;2.322;2022-08-19T20:53:55;4.00;;;1.00;;
62479;SDS011;48526;48.846;2.322;2022-08-19T20:56:26;1.00;;;0.00;;
62479;SDS011;48526;48.846;2.322;2022-08-19T20:59:00;3.50;;;1.50;;
62479;SDS011;48526;48.846;2.322;2022-08-19T21:01:30;3.00;;;3.00;;
62479;SDS011;48526;48.846;2.322;2022-08-19T21:04:00;4.25;;;3.50;;
62479;SDS011;48526;48.846;2.322;2022-08-19T21:06:26;4.75;;;4.00;;
62479;SDS011;48526;48.846;2.322;2022-08-19T21:08:52;6.00;;;6.00;;
62479;SDS011;48526;48.846;2.322;2022-08-19T21:11:22;3.00;;;3.00;;
62479;SDS011;48526;48.846;2.322;2022-08-19T21:13:47;4.50;;;4.00;;
62479;SDS011;48526;48.846;2.322;2022-08-19T21:16:13;3.00;;;3.00;;
62479;SDS011;48526;48.846;2.322;2022-08-19T21:18:41;4.75;;;3.25;;
62479;SDS011;48526;48.846;2.322;2022-08-19T21:21:16;8.00;;;6.25;;
62479;SDS011;48526;48.846;2.322;2022-08-19T21:23:42;5.25;;;5.00;;
62479;SDS011;48526;48.846;2.322;2022-08-19T21:26:07;7.00;;;5.25;;
62479;SDS011;48526;48.846;2.322;2022-08-19T21:28:33;6.75;;;5.00;;
62479;SDS011;48526;48.846;2.322;2022-08-19T21:30:59;6.00;;;5.75;;
62479;SDS011;48526;48.846;2.322;2022-08-19T21:33:26;9.25;;;7.50;;
62479;SDS011;48526;48.846;2.322;2022-08-19T21:35:53;7.25;;;5.75;;
62479;SDS011;48526;48.846;2.322;2022-08-19T21:38:21;7.50;;;6.75;;
62479;SDS011;48526;48.846;2.322;2022-08-19T21:40:46;7.50;;;6.75;;
62479;SDS011;48526;48.846;2.322;2022-08-19T21:43:12;7.50;;;7.50;;
62479;SDS011;48526;48.846;2.322;2022-08-19T21:45:46;4.50;;;4.50;;
62479;SDS011;48526;48.846;2.322;2022-08-19T21:48:12;5.00;;;4.25;;
62479;SDS011;48526;48.846;2.322;2022-08-19T21:50:41;4.00;;;3.50;;
62479;SDS011;48526;48.846;2.322;2022-08-19T21:53:12;2.75;;;2.75;;
62479;SDS011;48526;48.846;2.322;2022-08-19T21:55:38;4.00;;;3.75;;
62479;SDS011;48526;48.846;2.322;2022-08-19T21:58:06;3.00;;;2.75;;
